Impacts METAR Board INFO
IDs:

KTPA - Tampa Intl Arpt, FL, US

Updated at: 2148 UTC 24 Feb 2018
Potential Impact None Slight Moderate High
Time24/09Z 24/10Z 24/11Z 24/12Z 24/13Z 24/14Z 24/15Z 24/16Z 24/17Z 24/18Z 24/19Z 24/20Z 24/21Z
VIS10 10 10 10 10 10 10 10 10 10 10 10
CIG-- -- -- -- -- -- -- -- 55 42 -- 100
CoverCLRCLRFEWSCTFEWFEWSCTSCTBKNBKNSCTBKN
FltCatVFRVFRVFRVFRVFRVFRVFRVFRVFRVFRVFRVFR
WX------------------------
WDir100000120140140110150230240210
WSpd3 0 0 0 7 7 9 10 7 9 5 6
WGst-- -- -- -- -- 16 15 14 -- -- -- --
Raw hourly METARs
KTPA 240853Z 10003KT 10SM CLR 21/18 A3022 RMK AO2 SLP232 T02110183 56013

KTPA 241053Z 00000KT 10SM CLR 21/18 A3022 RMK AO2 SLP232 T02060183
KTPA 241153Z 00000KT 10SM FEW060 20/18 A3023 RMK AO2 SLP235 T02000183 10222 20200 53003
KTPA 241253Z 00000KT 10SM SCT020 21/18 A3024 RMK AO2 SLP239 T02110183
KTPA 241353Z 12007KT 10SM FEW022 23/18 A3024 RMK AO2 SLP240 T02280183
KTPA 241453Z COR 14007G16KT 10SM FEW023 FEW080 24/18 A3024 RMK AO2 SLP239 T02440183 50004
KTPA 241553Z 14009G15KT 10SM SCT030 SCT250 26/18 A3023 RMK SLP237 T02610183
KTPA 241653Z 11010G14KT 10SM SCT033 SCT250 28/18 A3022 RMK AO2 SLP231 T02780178
KTPA 241753Z 15007KT 10SM BKN055 28/17 A3019 RMK AO2 SLP221 CU BLDG ALQDS T02780172 10283 20200 58018
KTPA 241853Z 23009KT 10SM BKN042TCU 27/19 A3016 RMK AO2 SLP211 TCU ALQDS T02720189
KTPA 241953Z 24005KT 10SM SCT045TCU 28/18 A3014 RMK AO2 SLP206 TCU S VCSH S T02780183
KTPA 242053Z 21006KT 10SM SCT040CB BKN100 27/18 A3012 RMK AO2 SLP200 CB N AND E MOV N TCU ALQDS T02720178 56020